Time;durP1;ratioP1;P1;durP2;ratioP2;P2;SDS_P1;SDS_P2;PMS_P1;PMS_P2;Temp;Humidity;BMP_temperature;BMP_pressure;BME280_temperature;BME280_humidity;BME280_pressure;Samples;Min_cycle;Max_cycle;Signal;HPM_P1;HPM_P2
2022/03/29 00:00:58;;;;;;;;;;;;;;;7.17;86.10;101998.28;5116874;27;19916;-80
2022/03/29 00:03:26;;;;;;;;;;;;;;;7.19;84.40;101986.22;5117355;27;20039;-79
2022/03/29 00:05:52;;;;;;;;;;;;;;;7.17;83.08;101989.53;5117422;27;19919;-79
2022/03/29 00:08:18;;;;;;;;;;;;;;;7.14;82.22;101987.59;5117185;27;19919;-79
2022/03/29 00:10:44;;;;;;;;;;;;;;;7.17;81.28;101979.97;5134587;27;20057;-78
2022/03/29 00:13:10;;;;;;;;;;;;;;;7.16;80.75;101972.91;5116319;27;19919;-78
2022/03/29 00:15:35;;;;;;;;;;;;;;;7.19;80.25;101973.13;5114698;27;19923;-79
2022/03/29 00:18:01;;;;;;;;;;;;;;;7.22;79.94;101966.28;5116877;27;19919;-79
2022/03/29 00:20:26;;;;;;;;;;;;;;;7.15;79.73;101963.25;5117423;27;20359;-79
2022/03/29 00:22:53;;;;;;;;;;;;;;;7.16;79.35;101965.06;5116330;27;20374;-79
2022/03/29 00:25:19;;;;;;;;;;;;;;;7.17;78.95;101964.25;5116678;27;20009;-80
2022/03/29 00:27:44;;;;;;;;;;;;;;;7.15;78.73;101955.38;5116595;27;19967;-80
2022/03/29 00:30:11;;;;;;;;;;;;;;;7.19;78.43;101951.25;5116978;27;19922;-78
2022/03/29 00:32:38;;;;;;;;;;;;;;;7.18;78.24;101952.97;5116498;27;19915;-80
2022/03/29 00:35:04;;;;;;;;;;;;;;;7.16;78.34;101941.50;5112576;28;20343;-79
2022/03/29 00:37:29;;;;;;;;;;;;;;;7.13;78.37;101945.59;5096096;28;19920;-79
2022/03/29 00:39:54;;;;;;;;;;;;;;;7.16;78.22;101945.78;5096228;28;19912;-80
2022/03/29 00:42:19;;;;;;;;;;;;;;;7.21;78.04;101933.94;5114120;28;19916;-78
2022/03/29 00:44:50;;;;;;;;;;;;;;;7.26;77.96;101931.63;5095716;28;19942;-78
2022/03/29 00:47:15;;;;;;;;;;;;;;;7.27;77.97;101929.09;5096434;28;19915;-79
2022/03/29 00:49:40;;;;;;;;;;;;;;;7.19;78.16;101931.22;5095524;28;19926;-79
2022/03/29 00:52:07;;;;;;;;;;;;;;;7.22;78.31;101920.00;5095445;28;19923;-78
2022/03/29 00:54:35;;;;;;;;;;;;;;;7.26;78.46;101919.41;5113745;28;19927;-79
2022/03/29 00:57:00;;;;;;;;;;;;;;;7.17;78.99;101922.31;5095112;28;20346;-80
2022/03/29 00:59:27;;;;;;;;;;;;;;;7.17;79.42;101922.31;5094265;28;20010;-79
2022/03/29 01:01:52;;;;;;;;;;;;;;;7.23;79.70;101921.84;5096188;28;19915;-79
2022/03/29 01:04:20;;;;;;;;;;;;;;;7.19;80.15;101928.59;5096120;28;19923;-80
2022/03/29 01:06:46;;;;;;;;;;;;;;;7.20;80.27;101929.50;5095986;28;19952;-80
2022/03/29 01:09:13;;;;;;;;;;;;;;;7.13;80.58;101930.81;5096192;28;19923;-80
2022/03/29 01:11:41;;;;;;;;;;;;;;;7.09;80.75;101926.16;5113992;28;19920;-79
2022/03/29 01:14:11;;;;;;;;;;;;;;;7.14;80.65;101924.75;5095619;28;19974;-79
2022/03/29 01:19:21;;;;;;;;;;;;;;;7.16;81.21;101912.69;5114115;28;20275;-79
2022/03/29 01:21:56;;;;;;;;;;;;;;;7.19;81.48;101915.50;5096114;28;19920;-79
2022/03/29 01:24:37;;;;;;;;;;;;;;;7.21;81.67;101907.75;5099984;28;19916;-79
2022/03/29 01:27:04;;;;;;;;;;;;;;;7.18;81.88;101905.81;5099078;28;20314;-79
2022/03/29 01:29:29;;;;;;;;;;;;;;;7.22;81.78;101903.41;5099836;28;19915;-80
2022/03/29 01:31:56;;;;;;;;;;;;;;;7.20;81.93;101898.06;5099393;28;20366;-80
2022/03/29 01:34:21;;;;;;;;;;;;;;;7.19;82.04;101899.78;5099837;28;19916;-80
2022/03/29 01:36:47;;;;;;;;;;;;;;;7.17;82.13;101892.63;5118088;27;19927;-79
2022/03/29 01:39:12;;;;;;;;;;;;;;;7.22;82.15;101896.44;5120336;27;20370;-79
2022/03/29 01:41:40;;;;;;;;;;;;;;;7.23;82.54;101898.25;5120093;27;19945;-79
2022/03/29 01:44:17;;;;;;;;;;;;;;;7.19;82.80;101891.91;5138350;27;19926;-79
2022/03/29 01:46:42;;;;;;;;;;;;;;;7.19;82.83;101889.31;5119935;27;20045;-79
2022/03/29 01:49:08;;;;;;;;;;;;;;;7.16;82.97;101894.34;5119695;27;19962;-81
2022/03/29 01:51:33;;;;;;;;;;;;;;;7.12;83.27;101887.06;5120454;27;19915;-79
2022/03/29 01:54:04;;;;;;;;;;;;;;;7.20;83.14;101884.97;5119345;27;19915;-80
2022/03/29 01:56:31;;;;;;;;;;;;;;;7.21;83.43;101880.63;5119105;27;19998;-80
2022/03/29 01:58:56;;;;;;;;;;;;;;;7.14;84.32;101890.69;5119669;27;19978;-80
2022/03/29 02:01:23;;;;;;;;;;;;;;;7.07;84.59;101875.38;5137993;27;20367;-80
2022/03/29 02:03:50;;;;;;;;;;;;;;;7.08;83.89;101871.94;5119829;27;19927;-79
2022/03/29 02:06:16;;;;;;;;;;;;;;;7.14;83.15;101869.72;5120185;27;19922;-80
2022/03/29 02:08:42;;;;;;;;;;;;;;;7.10;83.34;101865.13;5119274;27;20275;-80
2022/03/29 02:11:08;;;;;;;;;;;;;;;7.11;83.45;101856.44;5119623;27;20346;-80
2022/03/29 02:13:33;;;;;;;;;;;;;;;7.11;83.99;101856.44;5119429;27;20430;-80
2022/03/29 02:15:59;;;;;;;;;;;;;;;7.18;84.18;101840.31;5119560;27;19923;-80
2022/03/29 02:18:24;;;;;;;;;;;;;;;7.14;85.48;101847.88;5119240;27;19916;-79
2022/03/29 02:20:49;;;;;;;;;;;;;;;7.05;86.62;101853.41;5119349;27;19926;-80
2022/03/29 02:23:17;;;;;;;;;;;;;;;7.09;86.47;101852.81;5119117;27;19919;-81
2022/03/29 02:25:42;;;;;;;;;;;;;;;6.97;86.99;101844.16;5118980;27;20382;-80
2022/03/29 02:28:08;;;;;;;;;;;;;;;6.88;86.20;101839.19;5116770;27;19943;-79
2022/03/29 02:30:35;;;;;;;;;;;;;;;6.90;84.57;101834.97;5118081;27;20267;-78
2022/03/29 02:33:02;;;;;;;;;;;;;;;6.91;83.76;101828.91;5118658;27;19923;-78
2022/03/29 02:35:28;;;;;;;;;;;;;;;6.89;83.61;101824.41;5130308;27;19919;-79
2022/03/29 02:37:53;;;;;;;;;;;;;;;6.85;83.91;101825.91;5098697;28;19969;-80
2022/03/29 02:40:18;;;;;;;;;;;;;;;6.75;84.07;101820.88;5098482;28;19920;-79
2022/03/29 02:42:45;;;;;;;;;;;;;;;6.74;83.63;101824.28;5098599;28;20302;-79
2022/03/29 02:45:15;;;;;;;;;;;;;;;6.75;82.48;101816.53;5098023;28;19923;-79
2022/03/29 02:47:40;;;;;;;;;;;;;;;6.72;81.61;101820.66;5098143;28;19916;-79
2022/03/29 02:50:06;;;;;;;;;;;;;;;6.69;81.08;101812.59;5097317;28;19922;-79
2022/03/29 02:52:32;;;;;;;;;;;;;;;6.59;80.61;101804.13;5096731;28;19966;-79
2022/03/29 02:55:03;;;;;;;;;;;;;;;6.57;80.14;101805.75;5097639;28;19976;-79
2022/03/29 02:57:29;;;;;;;;;;;;;;;6.50;79.62;101805.22;5098075;28;19919;-79
2022/03/29 02:59:54;;;;;;;;;;;;;;;6.56;78.86;101803.94;5097787;28;19931;-79
2022/03/29 03:02:19;;;;;;;;;;;;;;;6.60;78.58;101797.19;5098161;28;20016;-79
2022/03/29 03:04:47;;;;;;;;;;;;;;;6.55;78.75;101796.88;5097968;28;20400;-79
2022/03/29 03:07:12;;;;;;;;;;;;;;;6.51;78.65;101789.63;5097664;28;19915;-79
2022/03/29 03:09:38;;;;;;;;;;;;;;;6.45;78.45;101786.59;5098132;28;19923;-79
2022/03/29 03:12:03;;;;;;;;;;;;;;;6.42;78.27;101784.69;5097646;28;19920;-79
2022/03/29 03:14:33;;;;;;;;;;;;;;;6.38;77.91;101786.97;5116059;28;20344;-79
2022/03/29 03:16:59;;;;;;;;;;;;;;;6.36;77.59;101776.41;5097380;28;19920;-79
2022/03/29 03:19:25;;;;;;;;;;;;;;;6.39;77.28;101783.56;5097590;28;19916;-79
2022/03/29 03:21:51;;;;;;;;;;;;;;;6.45;76.92;101779.66;5096942;28;19924;-78
2022/03/29 03:24:21;;;;;;;;;;;;;;;6.33;77.04;101777.91;5115876;28;19916;-79
2022/03/29 03:26:47;;;;;;;;;;;;;;;6.17;77.07;101778.56;5112344;28;19963;-80
2022/03/29 03:29:12;;;;;;;;;;;;;;;6.13;76.81;101774.84;5095731;28;19942;-80
2022/03/29 03:31:40;;;;;;;;;;;;;;;6.09;76.52;101771.13;5097054;28;20419;-79
2022/03/29 03:34:10;;;;;;;;;;;;;;;6.06;76.24;101760.44;5097508;28;20291;-79
2022/03/29 03:36:36;;;;;;;;;;;;;;;6.01;75.94;101759.22;5097299;28;19920;-79
2022/03/29 03:39:02;;;;;;;;;;;;;;;5.96;75.66;101760.56;5097264;28;19938;-79
2022/03/29 03:41:27;;;;;;;;;;;;;;;5.93;75.36;101765.59;5097237;28;19923;-80
2022/03/29 03:43:54;;;;;;;;;;;;;;;5.92;75.05;101759.47;5115254;28;19935;-79
2022/03/29 03:46:19;;;;;;;;;;;;;;;5.85;74.78;101749.38;5088266;28;20017;-80
2022/03/29 03:48:46;;;;;;;;;;;;;;;5.87;74.55;101745.16;5114978;28;20241;-80
2022/03/29 03:51:11;;;;;;;;;;;;;;;5.82;74.44;101743.03;5080082;28;20057;-79
2022/03/29 03:53:38;;;;;;;;;;;;;;;5.83;74.23;101742.25;5096761;28;19923;-80
2022/03/29 03:56:03;;;;;;;;;;;;;;;5.83;74.01;101737.00;5096179;28;19920;-80
2022/03/29 03:58:28;;;;;;;;;;;;;;;5.84;73.77;101730.97;5075982;28;19970;-79
2022/03/29 04:00:55;;;;;;;;;;;;;;;5.76;73.62;101733.03;5067748;28;19993;-79
2022/03/29 04:03:27;;;;;;;;;;;;;;;5.68;73.54;101724.66;5115001;28;19916;-78
2022/03/29 04:05:52;;;;;;;;;;;;;;;5.71;73.33;101714.44;5095979;28;20019;-79
2022/03/29 04:08:18;;;;;;;;;;;;;;;5.68;73.19;101719.44;5114541;28;19947;-78
2022/03/29 04:10:44;;;;;;;;;;;;;;;5.68;73.00;101714.22;5096643;28;20201;-78
2022/03/29 04:13:11;;;;;;;;;;;;;;;5.75;72.79;101718.19;5096389;28;19919;-78
2022/03/29 04:15:37;;;;;;;;;;;;;;;5.74;72.64;101712.03;5115074;28;19955;-79
2022/03/29 04:18:02;;;;;;;;;;;;;;;5.75;72.53;101708.63;5096279;28;19970;-79
2022/03/29 04:20:29;;;;;;;;;;;;;;;5.75;72.41;101713.84;5096121;28;19919;-79
2022/03/29 04:22:55;;;;;;;;;;;;;;;5.79;72.22;101709.72;5114160;28;19982;-78
2022/03/29 04:25:20;;;;;;;;;;;;;;;5.70;72.15;101709.09;5096367;28;19926;-78
2022/03/29 04:27:46;;;;;;;;;;;;;;;5.70;72.06;101703.88;5096406;28;19916;-78
2022/03/29 04:30:11;;;;;;;;;;;;;;;5.72;71.95;101704.91;5078913;28;20291;-79
2022/03/29 04:32:37;;;;;;;;;;;;;;;5.78;71.97;101705.31;5096371;28;20018;-78
2022/03/29 04:35:03;;;;;;;;;;;;;;;5.65;71.95;101700.94;5077738;28;20022;-78
2022/03/29 04:37:30;;;;;;;;;;;;;;;5.57;71.90;101697.78;5131546;27;19919;-79
2022/03/29 04:39:56;;;;;;;;;;;;;;;5.53;71.82;101697.47;5115136;27;20370;-79
2022/03/29 04:42:21;;;;;;;;;;;;;;;5.52;71.75;101693.06;5114813;27;19923;-79
2022/03/29 04:44:57;;;;;;;;;;;;;;;5.57;71.66;101696.91;5131763;27;20442;-79
2022/03/29 04:47:23;;;;;;;;;;;;;;;5.55;71.54;101694.16;5116461;27;19919;-79
2022/03/29 04:49:48;;;;;;;;;;;;;;;5.54;71.46;101681.00;5096013;28;20295;-79
2022/03/29 04:52:14;;;;;;;;;;;;;;;5.52;71.43;101687.84;5107528;28;19962;-79
2022/03/29 04:54:41;;;;;;;;;;;;;;;5.58;71.33;101690.88;5123618;27;19916;-78
2022/03/29 04:57:09;;;;;;;;;;;;;;;5.51;71.32;101692.13;5115491;28;19955;-79
2022/03/29 04:59:34;;;;;;;;;;;;;;;5.53;71.24;101693.16;5116733;28;19919;-78
2022/03/29 05:02:01;;;;;;;;;;;;;;;5.56;71.16;101690.78;5095514;28;19931;-78
2022/03/29 05:04:33;;;;;;;;;;;;;;;5.64;71.05;101680.84;5114365;28;19916;-78
2022/03/29 05:06:58;;;;;;;;;;;;;;;5.64;70.98;101686.06;5108643;28;19922;-78
2022/03/29 05:09:23;;;;;;;;;;;;;;;5.74;70.82;101690.22;5115920;28;20013;-78
2022/03/29 05:11:49;;;;;;;;;;;;;;;5.73;70.76;101683.16;5099439;28;19923;-78
2022/03/29 05:14:19;;;;;;;;;;;;;;;5.70;70.73;101686.50;5116535;28;19920;-78
2022/03/29 05:16:48;;;;;;;;;;;;;;;5.75;70.63;101681.59;5134194;28;19955;-78
2022/03/29 05:19:13;;;;;;;;;;;;;;;5.66;70.65;101680.97;5116348;28;19957;-78
2022/03/29 05:21:39;;;;;;;;;;;;;;;5.61;70.65;101674.47;5115991;28;19915;-78
2022/03/29 05:24:05;;;;;;;;;;;;;;;5.64;70.59;101673.00;5099062;28;20434;-78
2022/03/29 05:26:32;;;;;;;;;;;;;;;5.67;70.52;101678.44;5113317;28;19923;-79
2022/03/29 05:28:57;;;;;;;;;;;;;;;5.72;70.48;101676.16;5132753;28;19921;-78
2022/03/29 05:31:23;;;;;;;;;;;;;;;5.70;70.44;101673.44;5115411;28;20453;-78
2022/03/29 05:33:49;;;;;;;;;;;;;;;5.67;70.39;101677.53;5116112;28;19919;-79
2022/03/29 05:36:15;;;;;;;;;;;;;;;5.59;70.39;101679.59;5104008;28;19924;-79
2022/03/29 05:38:48;;;;;;;;;;;;;;;5.63;70.34;101675.53;5112863;28;19923;-79
2022/03/29 05:41:15;;;;;;;;;;;;;;;5.67;70.27;101675.84;5094750;28;19916;-79
2022/03/29 05:43:42;;;;;;;;;;;;;;;5.70;70.21;101672.50;5095206;28;19924;-79
2022/03/29 05:48:52;;;;;;;;;;;;;;;5.69;70.12;101682.06;5112825;28;19927;-79
2022/03/29 05:51:19;;;;;;;;;;;;;;;5.69;70.10;101682.06;5078571;28;19927;-79
2022/03/29 05:53:47;;;;;;;;;;;;;;;5.70;69.99;101673.44;5112911;28;19962;-78
2022/03/29 05:56:12;;;;;;;;;;;;;;;5.75;69.92;101686.81;5095055;28;20592;-79
2022/03/29 05:58:38;;;;;;;;;;;;;;;5.75;69.89;101687.72;5112036;28;19920;-79
2022/03/29 06:01:04;;;;;;;;;;;;;;;5.72;69.89;101697.06;5094248;28;19997;-78
2022/03/29 06:03:30;;;;;;;;;;;;;;;5.73;69.87;101685.78;5094545;28;19919;-78
2022/03/29 06:05:56;;;;;;;;;;;;;;;5.77;69.87;101689.53;5094605;28;19939;-78
2022/03/29 06:08:22;;;;;;;;;;;;;;;5.79;69.85;101696.66;5063025;28;20376;-78
2022/03/29 06:10:47;;;;;;;;;;;;;;;5.77;69.86;101700.00;5088353;28;19920;-78
2022/03/29 06:13:15;;;;;;;;;;;;;;;5.73;69.93;101693.63;5081529;28;19928;-77
2022/03/29 06:15:41;;;;;;;;;;;;;;;5.71;69.91;101692.63;5097706;28;20014;-81
2022/03/29 06:18:07;;;;;;;;;;;;;;;5.66;69.94;101696.63;5116483;28;19920;-79
2022/03/29 06:20:33;;;;;;;;;;;;;;;5.60;69.96;101685.75;5099521;28;20056;-80
2022/03/29 06:22:58;;;;;;;;;;;;;;;5.56;69.98;101680.31;5098524;28;19970;-80
2022/03/29 06:25:24;;;;;;;;;;;;;;;5.62;69.94;101685.03;5081948;28;20431;-78
2022/03/29 06:27:49;;;;;;;;;;;;;;;5.65;69.92;101689.59;5080487;28;20571;-78
2022/03/29 06:30:15;;;;;;;;;;;;;;;5.63;69.92;101688.59;5080498;28;19924;-78
2022/03/29 06:32:45;;;;;;;;;;;;;;;5.64;69.92;101685.16;5096999;28;19920;-76
2022/03/29 06:35:10;;;;;;;;;;;;;;;5.72;69.86;101681.38;5095033;28;19926;-76
2022/03/29 06:37:36;;;;;;;;;;;;;;;5.70;69.86;101678.66;5096508;28;20002;-76
2022/03/29 06:40:02;;;;;;;;;;;;;;;5.78;69.81;101681.81;5093606;28;19977;-77
2022/03/29 06:42:27;;;;;;;;;;;;;;;5.81;69.79;101686.31;5097395;28;19919;-77
2022/03/29 06:44:52;;;;;;;;;;;;;;;5.74;69.82;101691.13;5095923;28;19959;-76
2022/03/29 06:47:18;;;;;;;;;;;;;;;5.77;69.81;101686.94;5115410;28;19915;-76
2022/03/29 06:49:43;;;;;;;;;;;;;;;5.69;69.83;101692.53;5096401;28;19922;-77
2022/03/29 06:52:09;;;;;;;;;;;;;;;5.69;69.86;101687.28;5096014;28;20383;-76
2022/03/29 06:54:35;;;;;;;;;;;;;;;5.57;69.95;101689.06;5095475;28;19980;-76
2022/03/29 06:57:00;;;;;;;;;;;;;;;5.55;70.00;101686.34;5092181;28;20364;-76
2022/03/29 06:59:25;;;;;;;;;;;;;;;5.56;69.99;101684.63;5079350;28;20006;-76
2022/03/29 07:01:51;;;;;;;;;;;;;;;5.65;69.95;101693.09;5114617;28;19985;-77
2022/03/29 07:04:16;;;;;;;;;;;;;;;5.59;69.98;101690.06;5079507;28;19970;-76
2022/03/29 07:06:42;;;;;;;;;;;;;;;5.65;69.99;101687.88;5096119;28;20022;-75
2022/03/29 07:11:53;;;;;;;;;;;;;;;5.66;70.07;101688.78;5114500;28;19922;-76
2022/03/29 07:14:18;;;;;;;;;;;;;;;5.73;70.09;101694.56;5114514;28;19916;-76
2022/03/29 07:16:45;;;;;;;;;;;;;;;5.74;70.16;101690.22;5096823;28;19924;-76
2022/03/29 07:19:11;;;;;;;;;;;;;;;5.78;70.17;101699.16;5094923;28;19916;-76
2022/03/29 07:21:40;;;;;;;;;;;;;;;5.65;70.42;101700.94;5094662;28;20048;-76
2022/03/29 07:24:05;;;;;;;;;;;;;;;5.58;70.45;101694.38;5095007;28;20334;-77
2022/03/29 07:26:31;;;;;;;;;;;;;;;5.70;70.47;101701.25;5112859;28;20042;-76
2022/03/29 07:28:57;;;;;;;;;;;;;;;5.80;70.48;101695.88;5077943;28;19926;-76
2022/03/29 07:31:23;;;;;;;;;;;;;;;5.82;70.57;101704.72;5113369;28;19915;-76
2022/03/29 07:33:48;;;;;;;;;;;;;;;5.77;70.71;101711.34;5095208;28;19927;-76
2022/03/29 07:36:13;;;;;;;;;;;;;;;5.86;70.78;101703.25;5105596;27;20528;-77
2022/03/29 07:38:38;;;;;;;;;;;;;;;5.83;70.89;101700.41;5115151;27;19916;-76
2022/03/29 07:41:04;;;;;;;;;;;;;;;5.92;71.01;101703.66;5114315;27;19926;-76
2022/03/29 07:43:30;;;;;;;;;;;;;;;5.94;71.19;101697.72;5133307;27;20385;-75
2022/03/29 07:45:56;;;;;;;;;;;;;;;5.96;71.50;101689.06;5114514;27;19915;-76
2022/03/29 07:48:22;;;;;;;;;;;;;;;5.93;71.75;101695.94;5114795;27;20351;-75
2022/03/29 07:50:48;;;;;;;;;;;;;;;6.03;71.95;101699.16;5115475;27;19918;-77
2022/03/29 07:53:13;;;;;;;;;;;;;;;6.08;72.28;101711.75;5115317;27;19916;-78
2022/03/29 07:55:42;;;;;;;;;;;;;;;6.19;72.74;101712.50;5097785;27;19931;-77
2022/03/29 07:58:08;;;;;;;;;;;;;;;6.28;73.46;101717.44;5133413;27;20423;-77
2022/03/29 08:00:36;;;;;;;;;;;;;;;6.32;74.86;101714.22;5115072;27;19915;-77
2022/03/29 08:03:03;;;;;;;;;;;;;;;6.19;77.95;101709.88;5114394;27;19923;-77
2022/03/29 08:05:29;;;;;;;;;;;;;;;6.22;83.01;101717.94;5133418;27;20371;-77
2022/03/29 08:07:57;;;;;;;;;;;;;;;6.36;94.15;101718.84;5114159;27;19916;-77
2022/03/29 08:10:22;;;;;;;;;;;;;;;6.36;100.00;101716.25;5114810;27;19916;-76
2022/03/29 08:12:48;;;;;;;;;;;;;;;6.33;100.00;101716.03;5115209;27;19922;-77
2022/03/29 08:15:13;;;;;;;;;;;;;;;6.28;100.00;101704.38;5113806;27;19919;-77
2022/03/29 08:17:38;;;;;;;;;;;;;;;6.37;100.00;101706.66;5097625;27;19976;-76
2022/03/29 08:20:05;;;;;;;;;;;;;;;6.47;100.00;101706.50;5133719;27;19919;-77
2022/03/29 08:22:36;;;;;;;;;;;;;;;6.39;100.00;101700.75;5132684;27;20291;-76
2022/03/29 08:25:02;;;;;;;;;;;;;;;6.49;100.00;101701.34;5114391;27;19916;-76
2022/03/29 08:27:27;;;;;;;;;;;;;;;6.73;100.00;101702.06;5132946;27;19951;-76
2022/03/29 08:29:53;;;;;;;;;;;;;;;6.73;100.00;101697.72;5131714;27;20307;-78
2022/03/29 08:32:19;;;;;;;;;;;;;;;6.62;100.00;101688.28;5097454;27;20184;-77
2022/03/29 08:34:44;;;;;;;;;;;;;;;6.53;100.00;101688.56;5132985;27;20028;-77
2022/03/29 08:37:11;;;;;;;;;;;;;;;6.53;100.00;101682.44;5077530;28;19955;-77
2022/03/29 08:39:37;;;;;;;;;;;;;;;6.45;100.00;101667.13;5077583;28;19931;-79
2022/03/29 08:42:07;;;;;;;;;;;;;;;6.49;100.00;101659.50;5093407;28;19916;-76
2022/03/29 08:44:33;;;;;;;;;;;;;;;6.49;100.00;101649.91;5093400;28;19955;-76
2022/03/29 08:46:58;;;;;;;;;;;;;;;6.65;100.00;101630.91;5111798;28;19919;-77
2022/03/29 08:49:24;;;;;;;;;;;;;;;6.66;100.00;101627.47;5112293;28;19927;-77
2022/03/29 08:51:50;;;;;;;;;;;;;;;6.69;100.00;101614.56;5111305;28;19912;-79
2022/03/29 08:54:19;;;;;;;;;;;;;;;6.45;100.00;101609.56;5111759;28;19923;-77
2022/03/29 08:56:46;;;;;;;;;;;;;;;6.39;100.00;101596.09;5094071;28;20398;-78
2022/03/29 08:59:11;;;;;;;;;;;;;;;6.41;100.00;101593.59;5093385;28;19925;-77
2022/03/29 09:01:37;;;;;;;;;;;;;;;6.44;100.00;101593.78;5093545;28;20427;-77
2022/03/29 09:04:11;;;;;;;;;;;;;;;6.51;100.00;101584.59;5092858;28;20375;-76
2022/03/29 09:07:00;;;;;;;;;;;;;;;6.66;100.00;101572.50;5093849;28;19916;-76
2022/03/29 09:09:30;;;;;;;;;;;;;;;6.78;100.00;101565.41;5094150;28;19920;-78
2022/03/29 09:11:58;;;;;;;;;;;;;;;6.93;100.00;101564.56;5092784;28;19960;-78
2022/03/29 09:14:24;;;;;;;;;;;;;;;6.69;100.00;101553.47;5076917;28;20303;-77
2022/03/29 09:16:51;;;;;;;;;;;;;;;6.76;100.00;101561.81;5093651;28;20006;-77
2022/03/29 09:19:21;;;;;;;;;;;;;;;6.82;100.00;101549.09;5111126;28;19916;-77
2022/03/29 09:21:47;;;;;;;;;;;;;;;6.73;100.00;101548.53;5093723;28;19916;-77
2022/03/29 09:24:14;;;;;;;;;;;;;;;6.60;100.00;101533.78;5111680;28;19915;-77
2022/03/29 09:26:46;;;;;;;;;;;;;;;6.58;100.00;101535.38;5092228;28;19922;-77
2022/03/29 09:29:13;;;;;;;;;;;;;;;6.76;100.00;101529.50;5111667;28;20045;-76
2022/03/29 09:31:39;;;;;;;;;;;;;;;6.60;100.00;101535.47;5092265;28;19920;-77
2022/03/29 09:34:11;;;;;;;;;;;;;;;6.64;100.00;101534.88;5110651;28;19924;-77
2022/03/29 09:36:44;;;;;;;;;;;;;;;6.89;100.00;101531.16;5111468;28;19926;-76
2022/03/29 09:39:28;;;;;;;;;;;;;;;6.97;100.00;101522.94;5111222;28;19920;-75
2022/03/29 09:41:56;;;;;;;;;;;;;;;7.17;100.00;101526.78;5092888;28;19928;-75
2022/03/29 09:44:22;;;;;;;;;;;;;;;7.03;100.00;101522.44;5096252;28;19950;-78
2022/03/29 09:47:02;;;;;;;;;;;;;;;7.15;100.00;101517.94;5096872;28;20011;-79
2022/03/29 09:49:28;;;;;;;;;;;;;;;7.01;100.00;101506.63;5097437;28;20177;-78
2022/03/29 09:52:17;;;;;;;;;;;;;;;7.21;100.00;101500.78;5096904;28;19918;-78
2022/03/29 09:55:02;;;;;;;;;;;;;;;7.10;100.00;101493.19;5096822;28;20290;-78
2022/03/29 09:57:34;;;;;;;;;;;;;;;7.24;100.00;101494.03;5116045;28;19912;-76
2022/03/29 10:00:02;;;;;;;;;;;;;;;7.34;100.00;101485.88;5096786;28;19921;-77
2022/03/29 10:02:36;;;;;;;;;;;;;;;7.37;100.00;101487.78;5114641;28;20352;-77
2022/03/29 10:05:02;;;;;;;;;;;;;;;7.47;100.00;101476.13;5096788;28;19912;-77
2022/03/29 10:07:30;;;;;;;;;;;;;;;7.42;100.00;101468.00;5095875;28;19922;-77
2022/03/29 10:09:57;;;;;;;;;;;;;;;7.59;100.00;101471.59;5114873;28;19985;-77
2022/03/29 10:12:23;;;;;;;;;;;;;;;7.77;100.00;101466.53;5080007;28;19920;-76
2022/03/29 10:14:50;;;;;;;;;;;;;;;7.78;100.00;101456.94;5096069;28;20444;-78
2022/03/29 10:17:15;;;;;;;;;;;;;;;7.71;100.00;101455.69;5096762;28;20295;-78
2022/03/29 10:19:44;;;;;;;;;;;;;;;7.91;100.00;101452.47;5114559;28;19916;-77
2022/03/29 10:22:09;;;;;;;;;;;;;;;8.03;100.00;101449.63;5096262;28;19946;-77
2022/03/29 10:24:37;;;;;;;;;;;;;;;7.72;100.00;101447.91;5079576;28;20291;-78
2022/03/29 10:27:03;;;;;;;;;;;;;;;7.72;100.00;101446.97;5114307;28;19916;-77
2022/03/29 10:29:30;;;;;;;;;;;;;;;7.84;100.00;101445.06;5095487;28;19916;-77
2022/03/29 10:32:05;;;;;;;;;;;;;;;7.64;100.00;101445.66;5114251;28;20498;-76
2022/03/29 10:34:39;;;;;;;;;;;;;;;7.57;100.00;101438.25;5114720;28;20359;-77
2022/03/29 10:37:27;;;;;;;;;;;;;;;7.42;100.00;101438.28;5095495;28;19976;-78
2022/03/29 10:39:57;;;;;;;;;;;;;;;7.43;100.00;101433.13;5114061;28;20286;-78
2022/03/29 10:42:36;;;;;;;;;;;;;;;7.54;100.00;101441.59;5095859;28;20363;-77
2022/03/29 10:45:15;;;;;;;;;;;;;;;7.49;100.00;101433.47;5114623;28;19916;-77
2022/03/29 10:47:43;;;;;;;;;;;;;;;7.74;100.00;101427.03;5114437;28;19920;-77
2022/03/29 10:50:10;;;;;;;;;;;;;;;7.50;100.00;101429.13;5078571;28;19920;-78
2022/03/29 10:52:41;;;;;;;;;;;;;;;7.84;100.00;101426.72;5113610;28;19922;-77
2022/03/29 10:55:22;;;;;;;;;;;;;;;8.02;100.00;101439.06;5094224;28;20321;-77
2022/03/29 10:58:07;;;;;;;;;;;;;;;7.96;100.00;101420.38;5113778;28;19919;-77
2022/03/29 11:00:34;;;;;;;;;;;;;;;8.01;100.00;101416.28;5114372;28;19912;-78
2022/03/29 11:03:14;;;;;;;;;;;;;;;8.04;100.00;101416.44;5095746;28;20312;-79
2022/03/29 11:06:00;;;;;;;;;;;;;;;8.17;100.00;101410.13;5095845;28;19916;-78
2022/03/29 11:08:29;;;;;;;;;;;;;;;8.43;100.00;101406.28;5095612;28;19937;-78
2022/03/29 11:10:54;;;;;;;;;;;;;;;8.47;100.00;101405.69;5094900;28;19916;-78
2022/03/29 11:13:27;;;;;;;;;;;;;;;8.32;100.00;101399.59;5095364;28;20367;-78
2022/03/29 11:15:57;;;;;;;;;;;;;;;8.05;100.00;101389.41;5094977;28;20372;-77
2022/03/29 11:18:31;;;;;;;;;;;;;;;8.12;100.00;101388.91;5095643;28;19919;-79
2022/03/29 11:21:04;;;;;;;;;;;;;;;8.23;100.00;101387.78;5095272;28;19969;-77
2022/03/29 11:23:34;;;;;;;;;;;;;;;8.46;100.00;101381.97;5095148;28;20375;-77
2022/03/29 11:26:04;;;;;;;;;;;;;;;8.53;100.00;101378.84;5077308;28;19927;-78
2022/03/29 11:28:30;;;;;;;;;;;;;;;8.56;100.00;101372.06;5095250;28;20379;-79
2022/03/29 11:30:55;;;;;;;;;;;;;;;8.35;100.00;101369.16;5095029;28;20359;-78
2022/03/29 11:33:30;;;;;;;;;;;;;;;8.37;100.00;101366.59;5112176;28;20002;-78
2022/03/29 11:35:56;;;;;;;;;;;;;;;8.29;100.00;101368.81;5094685;28;20394;-78
2022/03/29 11:38:21;;;;;;;;;;;;;;;8.55;100.00;101364.09;5094727;28;19916;-77
2022/03/29 11:40:47;;;;;;;;;;;;;;;8.79;100.00;101356.56;5094459;28;20377;-79
2022/03/29 11:43:14;;;;;;;;;;;;;;;8.43;100.00;101361.69;5077537;28;19927;-78
2022/03/29 11:45:40;;;;;;;;;;;;;;;8.58;100.00;101354.66;5095329;28;19911;-77
2022/03/29 11:48:11;;;;;;;;;;;;;;;8.87;100.00;101344.75;5112202;28;19916;-77
2022/03/29 11:50:53;;;;;;;;;;;;;;;9.06;100.00;101327.25;5094988;28;19916;-78
2022/03/29 11:53:25;;;;;;;;;;;;;;;9.25;100.00;101327.34;5112146;28;19923;-78
2022/03/29 11:55:56;;;;;;;;;;;;;;;9.06;100.00;101322.00;5094610;28;20389;-78
2022/03/29 11:58:23;;;;;;;;;;;;;;;9.21;100.00;101322.75;5094714;28;19916;-79
2022/03/29 12:00:56;;;;;;;;;;;;;;;9.63;100.00;101312.53;5094189;28;20019;-80
2022/03/29 12:03:34;;;;;;;;;;;;;;;9.53;100.00;101303.28;5094789;28;19970;-79
2022/03/29 12:06:09;;;;;;;;;;;;;;;10.13;100.00;101305.19;5094478;28;19920;-78
2022/03/29 12:08:53;;;;;;;;;;;;;;;9.88;100.00;101298.78;5111885;28;19924;-79
2022/03/29 12:11:29;;;;;;;;;;;;;;;10.46;100.00;101304.91;5113032;28;19923;-79
2022/03/29 12:14:00;;;;;;;;;;;;;;;10.57;100.00;101289.56;5077820;28;19924;-79
2022/03/29 12:16:27;;;;;;;;;;;;;;;10.45;100.00;101283.78;5094255;28;19916;-78
2022/03/29 12:19:16;;;;;;;;;;;;;;;10.03;100.00;101282.78;5095678;28;19924;-78
2022/03/29 12:21:45;;;;;;;;;;;;;;;9.76;100.00;101271.03;5113457;28;20410;-77
2022/03/29 12:24:11;;;;;;;;;;;;;;;9.75;100.00;101262.22;5094860;28;19919;-78
2022/03/29 12:26:51;;;;;;;;;;;;;;;9.98;100.00;101263.28;5112665;28;19915;-80
2022/03/29 12:29:17;;;;;;;;;;;;;;;9.69;100.00;101244.47;5093617;28;19975;-79
2022/03/29 12:31:43;;;;;;;;;;;;;;;10.05;100.00;101244.31;5094185;28;19976;-79
2022/03/29 12:34:09;;;;;;;;;;;;;;;9.90;100.00;101233.09;5094216;28;20318;-80
2022/03/29 12:36:38;;;;;;;;;;;;;;;9.88;100.00;101237.38;5093955;28;19946;-80
2022/03/29 12:39:05;;;;;;;;;;;;;;;10.10;100.00;101227.81;5094129;28;20010;-77
2022/03/29 12:41:41;;;;;;;;;;;;;;;10.12;100.00;101219.16;5093481;28;19911;-77
2022/03/29 12:44:09;;;;;;;;;;;;;;;10.32;100.00;101227.91;5093049;28;19915;-78
2022/03/29 12:46:34;;;;;;;;;;;;;;;10.13;100.00;101212.16;5111915;28;20391;-75
2022/03/29 12:49:00;;;;;;;;;;;;;;;9.94;100.00;101206.06;5112060;28;19920;-77
2022/03/29 12:51:36;;;;;;;;;;;;;;;9.93;100.00;101203.38;5093036;28;19916;-77
2022/03/29 12:54:11;;;;;;;;;;;;;;;10.00;100.00;101197.56;5111779;28;19928;-79